Pagrindinis puslapis
METAR-TAF:

METAR-TAF

Oro uostai :

Kramfors, Švedija

platuma: 63-03N, ilguma: 017-46E, Aukštis: 10 m

Dabartinis oras

Ataskaita buvo paskelbta 23 minutes, ne 11:50 UTC
Ramus vėjas
Temperatūra 1°C
Drėgmė 100%
Slėgis 994 hPa
Matomumas: 4000 m

METAR: ESNK 161150Z AUTO 00000KT 4000 OVC004/// 01/01 Q0994

Laikas: 13:13 (12:13 UTC)

Prognozė

Ataskaita buvo paskelbta 6 valandos ir 43 minutes, ne 05:30 UTC
Prognozė galioja nuo 16 metu 06 UTC su 16 metu 10 UTC
Vėjas 2 kt nuo kintamojo kryptimis
Matomumas: 5000 m
Apsiniaukę ne aukštis 300 ft
Tikimybė 40%
nuo 16 metu 06 UTC su 16 metu 10 UTC
Matomumas: 0500 m
Apsiniaukę ne aukštis 600 ft
rūkas

TAF: ESNK 160530Z 1606/1610 VRB02KT 5000 OVC003 PROB40 1606/1610 0500 FG OVC006

Orai ataskaitas ir orų prognozės (METAR, TAF).

turimą stotys yra geltonos ir raudonos taškus žemėlapyje.

Perkelti pele per norėdami pamatyti stoties vardą.

Tada spustelėkite, norėdami matyti oro stebėjimo ir prognozės.

Norėdami pakeisti žemėlapį: spustelėkite ant žalios mygtukų su juodo kryžiaus žemyn,; žalią mygtuką su brūkšneliu, jei norite nutolinti; arba žalių rodyklių gretimoms žemėlapius.


METAR-TAF: